Time;durP1;ratioP1;P1;durP2;ratioP2;P2;SDS_P1;SDS_P2;PMS_P1;PMS_P2;Temp;Humidity;BMP_temperature;BMP_pressure;BME280_temperature;BME280_humidity;BME280_pressure;Samples;Min_cycle;Max_cycle;Signal;HPM_P1;HPM_P2
2021/12/16 00:07:30;;;;;;;6.07;1.30;;;11.00;99.90;;;;;;5101986;28;20660;-64
2021/12/16 00:10:28;;;;;;;8.97;1.50;;;11.00;99.90;;;;;;5106397;28;20202;-63
2021/12/16 00:19:25;;;;;;;5.73;1.60;;;11.00;99.90;;;;;;5100364;28;20711;-62
2021/12/16 00:32:34;;;;;;;7.47;1.47;;;11.00;99.90;;;;;;5097876;28;20177;-63
2021/12/16 00:35:07;;;;;;;3.87;1.30;;;11.00;99.90;;;;;;5098901;27;20648;-62
2021/12/16 00:37:53;;;;;;;8.23;1.30;;;11.10;99.90;;;;;;5117043;27;20192;-63
2021/12/16 00:40:42;;;;;;;5.30;1.37;;;11.10;99.90;;;;;;5115743;27;20803;-63
2021/12/16 00:49:43;;;;;;;8.17;1.23;;;10.90;99.90;;;;;;5089838;27;20192;-61
2021/12/16 00:58:39;;;;;;;5.30;1.50;;;10.70;99.90;;;;;;5112842;27;20188;-63
2021/12/16 01:08:08;;;;;;;6.57;1.60;;;10.70;99.90;;;;;;5111826;27;20195;-62
2021/12/16 01:40:37;;;;;;;4.50;1.40;;;10.30;99.90;;;;;;5097812;28;20217;-65
2021/12/16 01:45:57;;;;;;;7.03;1.50;;;10.20;99.90;;;;;;5118511;27;20212;-64
2021/12/16 01:49:16;;;;;;;3.03;1.13;;;10.20;99.90;;;;;;5124697;27;20184;-62
2021/12/16 01:52:35;;;;;;;7.73;1.13;;;10.20;99.90;;;;;;5117501;27;20280;-63
2021/12/16 01:55:16;;;;;;;3.43;1.10;;;10.20;99.90;;;;;;5112589;27;20275;-62
2021/12/16 01:58:15;;;;;;;10.40;1.10;;;10.10;99.90;;;;;;5126045;27;20185;-63
2021/12/16 02:04:18;;;;;;;9.40;1.43;;;10.10;99.90;;;;;;5123626;27;20933;-63
2021/12/16 02:07:23;;;;;;;4.23;1.10;;;10.10;99.90;;;;;;5110459;27;20227;-64
2021/12/16 02:10:13;;;;;;;2.33;1.00;;;10.10;99.90;;;;;;5113895;27;20203;-64
2021/12/16 02:37:47;;;;;;;4.00;1.10;;;10.00;99.90;;;;;;5120036;27;20196;-63
2021/12/16 02:40:36;;;;;;;4.93;1.20;;;10.00;99.90;;;;;;5109534;27;20176;-63
2021/12/16 02:49:43;;;;;;;3.70;0.90;;;9.90;99.90;;;;;;5125750;27;20271;-63
2021/12/16 02:52:30;;;;;;;1.57;0.80;;;9.90;99.90;;;;;;5122911;27;20181;-63
2021/12/16 02:55:20;;;;;;;1.33;0.70;;;9.90;99.90;;;;;;5112675;27;20185;-63
2021/12/16 02:58:07;;;;;;;4.60;1.20;;;9.80;99.90;;;;;;5116051;27;20345;-62
2021/12/16 03:01:20;;;;;;;2.10;0.97;;;9.80;99.90;;;;;;5116246;27;20287;-63
2021/12/16 03:04:14;;;;;;;3.70;1.20;;;9.80;99.90;;;;;;5123302;27;20276;-63
2021/12/16 03:07:01;;;;;;;3.30;1.00;;;9.80;99.90;;;;;;5118871;27;20212;-62
2021/12/16 03:16:24;;;;;;;4.87;0.70;;;9.60;99.90;;;;;;5119513;27;20267;-64
2021/12/16 03:19:17;;;;;;;6.93;0.97;;;9.50;99.90;;;;;;5107334;27;20184;-63
2021/12/16 03:22:05;;;;;;;1.63;0.50;;;9.50;99.90;;;;;;5122338;27;20193;-65
2021/12/16 03:31:38;;;;;;;1.50;0.87;;;9.30;99.90;;;;;;5120933;27;20216;-62
2021/12/16 03:34:39;;;;;;;5.73;1.07;;;9.30;99.90;;;;;;5119935;27;20594;-64
2021/12/16 03:37:27;;;;;;;3.27;1.23;;;9.30;99.90;;;;;;5098725;27;20180;-64
2021/12/16 03:40:15;;;;;;;5.57;1.00;;;9.30;99.90;;;;;;5106323;27;20549;-62
2021/12/16 03:43:13;;;;;;;2.23;1.10;;;9.30;99.90;;;;;;5104586;27;20186;-62
2021/12/16 03:49:21;;;;;;;8.03;1.10;;;9.30;99.90;;;;;;5123721;28;20180;-64
2021/12/16 03:52:09;;;;;;;5.47;1.13;;;9.30;99.90;;;;;;5122392;28;20192;-64
2021/12/16 03:54:57;;;;;;;1.20;0.90;;;9.40;99.90;;;;;;5118697;28;20230;-63
2021/12/16 03:57:45;;;;;;;6.33;1.00;;;9.40;99.90;;;;;;5102826;28;20197;-61
2021/12/16 04:00:42;;;;;;;5.07;1.00;;;9.40;99.90;;;;;;5119186;28;20279;-64
2021/12/16 04:03:29;;;;;;;2.77;0.97;;;9.30;99.90;;;;;;5122312;28;20300;-63
2021/12/16 04:06:18;;;;;;;3.30;1.20;;;9.40;99.90;;;;;;5121345;28;20307;-62
2021/12/16 04:09:11;;;;;;;3.17;1.00;;;9.40;99.90;;;;;;5124576;27;20184;-63
2021/12/16 04:12:08;;;;;;;2.53;1.00;;;9.30;99.90;;;;;;5128331;27;20181;-63
2021/12/16 04:14:59;;;;;;;2.67;0.90;;;9.30;99.90;;;;;;5124495;27;20185;-62
2021/12/16 04:17:46;;;;;;;2.93;1.00;;;9.30;99.90;;;;;;5128120;27;20195;-62
2021/12/16 04:20:34;;;;;;;1.90;1.00;;;9.20;99.90;;;;;;5110488;27;20485;-63
2021/12/16 04:23:21;;;;;;;1.93;1.00;;;9.20;99.90;;;;;;5125821;27;20251;-63
2021/12/16 04:26:07;;;;;;;1.30;0.80;;;9.20;99.90;;;;;;5118972;27;20220;-63
2021/12/16 04:28:55;;;;;;;1.57;1.03;;;9.20;99.90;;;;;;5123281;27;20773;-62
2021/12/16 04:31:42;;;;;;;3.87;1.27;;;9.10;99.90;;;;;;5117936;27;20301;-61
2021/12/16 04:34:29;;;;;;;3.93;1.10;;;9.10;99.90;;;;;;5122825;27;20211;-63
2021/12/16 04:37:16;;;;;;;3.30;0.87;;;9.20;99.90;;;;;;5123338;27;20192;-63
2021/12/16 04:40:08;;;;;;;4.30;1.07;;;9.20;99.90;;;;;;5124184;27;20185;-63
2021/12/16 04:43:00;;;;;;;2.40;1.07;;;9.10;99.90;;;;;;5110056;27;20271;-62
2021/12/16 04:45:50;;;;;;;2.07;1.00;;;9.10;99.90;;;;;;5093818;28;20210;-63
2021/12/16 04:48:40;;;;;;;2.17;1.03;;;9.00;99.90;;;;;;5092250;28;20265;-64
2021/12/16 04:51:34;;;;;;;2.90;0.97;;;9.00;99.90;;;;;;5090307;28;20197;-65
2021/12/16 04:54:24;;;;;;;4.67;1.20;;;9.10;99.90;;;;;;5096677;27;20198;-63
2021/12/16 04:57:11;;;;;;;4.77;1.10;;;9.10;99.90;;;;;;5109291;27;20334;-63
2021/12/16 04:59:57;;;;;;;4.20;1.03;;;9.20;99.90;;;;;;5092957;28;20204;-63
2021/12/16 05:02:46;;;;;;;3.33;1.00;;;9.10;99.90;;;;;;5092862;28;20573;-64
2021/12/16 05:05:33;;;;;;;3.63;1.00;;;9.10;99.90;;;;;;5083028;28;20277;-62
2021/12/16 05:08:20;;;;;;;4.53;0.83;;;9.10;99.90;;;;;;5104427;28;20212;-62
2021/12/16 05:11:13;;;;;;;0.93;0.73;;;9.10;99.90;;;;;;5104821;28;20218;-62
2021/12/16 05:14:00;;;;;;;1.53;0.80;;;9.10;99.90;;;;;;5107590;28;20635;-64
2021/12/16 05:16:47;;;;;;;3.80;0.97;;;9.10;99.90;;;;;;5101843;28;20193;-63
2021/12/16 05:19:34;;;;;;;2.93;1.00;;;9.10;99.90;;;;;;5093919;27;20181;-62
2021/12/16 05:25:43;;;;;;;3.90;1.13;;;9.10;99.90;;;;;;5098448;28;20551;-61
2021/12/16 05:28:30;;;;;;;3.03;1.23;;;9.20;99.90;;;;;;5093662;28;20185;-62
2021/12/16 05:31:19;;;;;;;1.47;0.80;;;9.20;99.90;;;;;;5093317;27;20196;-63
2021/12/16 05:34:07;;;;;;;1.43;0.73;;;9.20;99.90;;;;;;5101871;28;20270;-64
2021/12/16 05:36:54;;;;;;;5.87;1.40;;;9.20;99.90;;;;;;5089184;28;20275;-61
2021/12/16 05:39:41;;;;;;;3.87;0.90;;;9.20;99.90;;;;;;5100801;27;20610;-62
2021/12/16 05:42:28;;;;;;;1.77;1.10;;;9.20;99.90;;;;;;5091645;28;20274;-61
2021/12/16 05:45:15;;;;;;;3.73;1.00;;;9.30;99.90;;;;;;5117509;27;20225;-63
2021/12/16 05:48:06;;;;;;;4.20;1.10;;;9.30;99.90;;;;;;5123251;27;20186;-61
2021/12/16 05:51:02;;;;;;;6.30;1.10;;;9.40;99.90;;;;;;5125496;27;20720;-62
2021/12/16 05:53:51;;;;;;;6.03;0.90;;;9.40;99.90;;;;;;5123787;27;20608;-62
2021/12/16 05:56:39;;;;;;;1.97;1.10;;;9.40;99.90;;;;;;5108051;27;20181;-63
2021/12/16 05:59:26;;;;;;;3.67;1.20;;;9.50;99.90;;;;;;5126994;27;20739;-63
2021/12/16 06:02:13;;;;;;;2.53;0.90;;;9.60;99.90;;;;;;5119925;27;20260;-63
2021/12/16 06:04:59;;;;;;;3.93;1.10;;;9.60;99.90;;;;;;5124118;27;20257;-62
2021/12/16 06:07:46;;;;;;;1.93;0.90;;;9.70;99.90;;;;;;5125027;27;20185;-62
2021/12/16 06:13:27;;;;;;;2.10;1.07;;;9.90;99.90;;;;;;5125017;27;20188;-63
2021/12/16 06:28:26;;;;;;;3.00;1.17;;;10.20;99.90;;;;;;5131935;27;20181;-62
2021/12/16 06:31:13;;;;;;;4.50;1.17;;;10.30;99.90;;;;;;5102970;27;20243;-65
2021/12/16 06:34:00;;;;;;;2.80;0.90;;;10.30;99.90;;;;;;5114960;27;22215;-64
2021/12/16 06:36:47;;;;;;;9.43;1.20;;;10.30;99.90;;;;;;5119790;27;20245;-65
2021/12/16 06:39:34;;;;;;;5.23;0.90;;;10.40;99.90;;;;;;5133763;27;20231;-64
2021/12/16 06:42:23;;;;;;;2.90;1.00;;;10.50;99.90;;;;;;5130605;27;20750;-62
2021/12/16 06:45:17;;;;;;;10.33;1.23;;;10.50;99.90;;;;;;5121338;27;20679;-62
2021/12/16 06:48:11;;;;;;;1.97;1.07;;;10.50;99.90;;;;;;5124415;27;20197;-63
2021/12/16 06:51:12;;;;;;;1.43;1.03;;;10.50;99.90;;;;;;5122961;27;20260;-63
2021/12/16 06:54:05;;;;;;;2.93;1.27;;;10.60;99.90;;;;;;5124146;27;20199;-64
2021/12/16 07:00:14;;;;;;;4.07;1.20;;;10.70;99.90;;;;;;5106488;27;20321;-65
2021/12/16 07:03:04;;;;;;;3.70;1.10;;;10.80;99.90;;;;;;5122347;27;20188;-63
2021/12/16 07:05:54;;;;;;;2.07;1.00;;;10.90;99.90;;;;;;5116413;27;20205;-62
2021/12/16 07:08:42;;;;;;;4.23;1.10;;;10.90;99.90;;;;;;5118128;27;20264;-63
2021/12/16 07:11:30;;;;;;;2.03;1.00;;;10.90;99.90;;;;;;5132723;27;20237;-62
2021/12/16 07:14:19;;;;;;;2.80;1.10;;;10.90;99.90;;;;;;5120226;27;20189;-64
2021/12/16 07:17:14;;;;;;;2.20;1.07;;;10.90;99.90;;;;;;5122272;27;20189;-63
2021/12/16 07:20:01;;;;;;;2.27;0.93;;;10.80;99.90;;;;;;5124639;27;20200;-61
2021/12/16 07:22:48;;;;;;;5.23;1.10;;;10.90;99.90;;;;;;5124194;27;20682;-65
2021/12/16 07:25:35;;;;;;;2.27;0.80;;;11.00;99.90;;;;;;5102464;27;20224;-63
2021/12/16 07:28:22;;;;;;;3.77;1.03;;;11.00;99.90;;;;;;5123188;27;20263;-64
2021/12/16 07:31:09;;;;;;;2.90;0.70;;;11.10;99.90;;;;;;5117065;27;20252;-65
2021/12/16 07:33:57;;;;;;;1.37;0.80;;;11.10;99.90;;;;;;5114149;27;20295;-65
2021/12/16 07:36:46;;;;;;;1.97;0.90;;;11.20;99.90;;;;;;5117618;27;20207;-64
2021/12/16 07:39:38;;;;;;;2.17;1.03;;;11.20;99.90;;;;;;5121384;27;20255;-65
2021/12/16 07:42:30;;;;;;;2.30;0.90;;;11.20;99.90;;;;;;5106379;28;20761;-63
2021/12/16 07:45:18;;;;;;;3.77;0.80;;;11.20;99.90;;;;;;5098372;27;20220;-65
2021/12/16 07:48:05;;;;;;;4.40;1.10;;;11.20;99.90;;;;;;5114601;27;20176;-66
2021/12/16 07:50:57;;;;;;;2.90;0.67;;;11.20;99.90;;;;;;5120478;27;20209;-65
2021/12/16 07:53:44;;;;;;;1.00;0.90;;;11.20;99.90;;;;;;5125543;27;20303;-66
2021/12/16 07:56:32;;;;;;;2.23;0.63;;;11.20;99.90;;;;;;5123874;27;20188;-66
2021/12/16 07:59:19;;;;;;;3.70;0.80;;;11.20;99.90;;;;;;5118424;27;20192;-65
2021/12/16 08:02:11;;;;;;;3.90;0.80;;;11.20;99.90;;;;;;5098888;28;20268;-66
2021/12/16 08:04:58;;;;;;;1.17;0.70;;;11.20;99.90;;;;;;5112583;28;20337;-65
2021/12/16 08:07:45;;;;;;;3.00;0.90;;;11.20;99.90;;;;;;5120149;27;20179;-65
2021/12/16 08:10:33;;;;;;;2.17;1.00;;;11.20;99.90;;;;;;5120654;28;20690;-65
2021/12/16 08:13:20;;;;;;;2.47;0.83;;;11.30;99.90;;;;;;5106237;27;20184;-64
2021/12/16 08:16:09;;;;;;;2.60;1.03;;;11.30;99.90;;;;;;5119698;27;20277;-65
2021/12/16 08:18:57;;;;;;;2.10;0.97;;;11.30;99.90;;;;;;5112738;27;20193;-66
2021/12/16 08:21:44;;;;;;;1.83;0.97;;;11.30;99.90;;;;;;5116681;27;20210;-66
2021/12/16 08:24:31;;;;;;;4.13;1.10;;;11.40;99.90;;;;;;5117050;27;20620;-64
2021/12/16 08:27:20;;;;;;;1.50;0.77;;;11.40;99.90;;;;;;5115960;27;20196;-65
2021/12/16 08:30:12;;;;;;;2.37;0.67;;;11.40;99.90;;;;;;5102788;27;20193;-65
2021/12/16 08:33:04;;;;;;;2.00;0.87;;;11.40;99.90;;;;;;5114832;27;20547;-65
2021/12/16 08:35:54;;;;;;;4.20;0.73;;;11.50;99.90;;;;;;5116002;27;20206;-65
2021/12/16 08:38:41;;;;;;;6.33;1.30;;;11.60;99.90;;;;;;5102589;27;20185;-65
2021/12/16 08:41:37;;;;;;;1.63;0.80;;;11.60;99.90;;;;;;5126879;27;20821;-65
2021/12/16 08:44:26;;;;;;;2.70;0.70;;;11.70;99.90;;;;;;5102851;27;20931;-64
2021/12/16 08:47:17;;;;;;;1.20;0.70;;;11.80;99.90;;;;;;5096754;27;20216;-65
2021/12/16 08:50:08;;;;;;;3.63;0.80;;;11.80;99.90;;;;;;5112928;27;20178;-65
2021/12/16 08:52:56;;;;;;;1.10;0.63;;;11.80;99.90;;;;;;5125904;27;20630;-65
2021/12/16 08:55:45;;;;;;;2.93;0.90;;;11.90;99.90;;;;;;5112440;27;20218;-64
2021/12/16 08:58:34;;;;;;;1.40;0.53;;;12.00;99.90;;;;;;5133389;27;20200;-65
2021/12/16 09:01:26;;;;;;;1.30;0.50;;;12.00;99.90;;;;;;5123772;27;20675;-64
2021/12/16 09:04:15;;;;;;;1.33;0.60;;;12.00;99.90;;;;;;5131093;27;20283;-65
2021/12/16 09:07:08;;;;;;;2.10;0.63;;;12.10;99.90;;;;;;5102591;27;20213;-66
2021/12/16 09:09:57;;;;;;;0.83;0.60;;;12.20;99.90;;;;;;5114731;27;20223;-64
2021/12/16 09:16:00;;;;;;;2.10;0.70;;;12.40;99.90;;;;;;5117215;27;20272;-66
2021/12/16 09:18:48;;;;;;;2.93;1.10;;;12.40;99.90;;;;;;5121835;27;20188;-64
2021/12/16 09:21:46;;;;;;;0.93;0.73;;;12.40;99.90;;;;;;5103331;27;20641;-64
2021/12/16 09:24:33;;;;;;;1.87;0.87;;;12.50;99.90;;;;;;5121749;27;20193;-66
2021/12/16 09:27:20;;;;;;;3.00;1.10;;;12.60;99.90;;;;;;5119013;27;20213;-66
2021/12/16 09:30:12;;;;;;;2.03;0.70;;;12.60;99.90;;;;;;5124916;27;20193;-66
2021/12/16 09:33:01;;;;;;;1.47;0.73;;;12.70;99.90;;;;;;5123097;27;20195;-64
2021/12/16 09:35:55;;;;;;;1.30;0.70;;;12.70;99.90;;;;;;5108606;27;20209;-66
2021/12/16 09:38:44;;;;;;;2.77;0.80;;;12.70;99.90;;;;;;5104903;27;20203;-66
2021/12/16 09:41:31;;;;;;;3.30;0.50;;;12.70;99.90;;;;;;5120219;27;20257;-64
2021/12/16 09:44:19;;;;;;;0.70;0.40;;;12.70;99.90;;;;;;5119129;27;20441;-67
2021/12/16 09:47:13;;;;;;;3.40;0.77;;;12.70;99.90;;;;;;5117850;27;20297;-66
2021/12/16 09:50:01;;;;;;;1.73;0.67;;;12.80;99.90;;;;;;5108543;27;20185;-67
2021/12/16 09:52:48;;;;;;;1.40;0.50;;;12.90;99.90;;;;;;5120545;27;20188;-65
2021/12/16 09:55:35;;;;;;;1.03;0.60;;;13.00;99.90;;;;;;5123110;27;20579;-66
2021/12/16 09:58:21;;;;;;;1.13;0.70;;;13.00;99.90;;;;;;5124950;27;20196;-65
2021/12/16 10:01:11;;;;;;;3.93;0.80;;;13.10;99.90;;;;;;5121794;27;20283;-65
2021/12/16 10:04:03;;;;;;;2.50;0.70;;;13.10;99.90;;;;;;5121269;27;20722;-64
2021/12/16 10:06:54;;;;;;;1.10;0.40;;;13.30;99.90;;;;;;5107606;27;20922;-66
2021/12/16 10:09:44;;;;;;;4.13;0.67;;;13.40;99.90;;;;;;5112913;27;20208;-65
2021/12/16 10:12:37;;;;;;;0.50;0.50;;;13.50;99.90;;;;;;5120360;27;20220;-65
2021/12/16 10:18:22;;;;;;;3.73;0.40;;;13.60;99.90;;;;;;5126668;27;20227;-64
2021/12/16 10:21:11;;;;;;;1.13;0.57;;;13.70;99.90;;;;;;5124733;27;20546;-65
2021/12/16 10:23:59;;;;;;;4.03;0.80;;;13.80;99.90;;;;;;5120572;27;20279;-64
2021/12/16 10:26:45;;;;;;;0.97;0.60;;;13.90;99.90;;;;;;5123994;27;20316;-64
2021/12/16 10:29:44;;;;;;;7.80;0.93;;;14.00;99.90;;;;;;5122618;27;20596;-65
2021/12/16 10:32:41;;;;;;;3.20;0.73;;;14.20;99.90;;;;;;5112744;27;20197;-65
2021/12/16 10:35:32;;;;;;;4.37;0.87;;;14.50;99.90;;;;;;5119827;27;20248;-65
2021/12/16 10:38:21;;;;;;;1.20;0.60;;;14.50;99.90;;;;;;5108912;27;20191;-65
2021/12/16 10:41:16;;;;;;;2.73;0.73;;;14.30;99.90;;;;;;5111760;27;20192;-66
2021/12/16 10:44:10;;;;;;;1.10;0.80;;;14.20;99.90;;;;;;5120683;27;20469;-66
2021/12/16 10:47:14;;;;;;;2.00;0.70;;;14.10;99.90;;;;;;5121722;27;20407;-64
2021/12/16 10:50:12;;;;;;;2.97;0.60;;;14.00;99.90;;;;;;5121225;27;20197;-64
2021/12/16 10:52:59;;;;;;;2.10;0.70;;;13.90;99.90;;;;;;5110740;27;20189;-65
2021/12/16 10:56:01;;;;;;;1.57;0.77;;;13.80;99.90;;;;;;5114774;27;20216;-66
2021/12/16 10:59:22;;;;;;;2.97;0.97;;;13.80;99.90;;;;;;5102320;27;20185;-65
2021/12/16 11:02:19;;;;;;;2.90;0.87;;;13.70;99.90;;;;;;5119851;27;20227;-64
2021/12/16 11:05:18;;;;;;;3.73;0.70;;;13.70;99.90;;;;;;5118148;27;20298;-64
2021/12/16 11:08:09;;;;;;;5.73;0.97;;;13.60;99.90;;;;;;5122491;27;20212;-62
2021/12/16 11:10:56;;;;;;;2.90;0.60;;;13.60;99.90;;;;;;5101206;27;20184;-63
2021/12/16 11:13:43;;;;;;;0.57;0.50;;;13.60;99.90;;;;;;5112724;27;20188;-66
2021/12/16 11:16:34;;;;;;;1.60;0.70;;;13.60;99.90;;;;;;5127685;27;20586;-64
2021/12/16 11:19:54;;;;;;;2.13;0.83;;;13.60;99.90;;;;;;5130062;27;20211;-65
2021/12/16 11:22:42;;;;;;;1.80;0.90;;;13.60;99.90;;;;;;5125894;27;20203;-65
2021/12/16 11:25:46;;;;;;;2.77;1.00;;;13.60;99.90;;;;;;5119564;27;20711;-67
2021/12/16 11:28:38;;;;;;;2.63;0.73;;;13.80;99.90;;;;;;5106811;27;20188;-64
2021/12/16 11:31:30;;;;;;;0.83;0.50;;;13.90;99.90;;;;;;5116404;27;20218;-67
2021/12/16 11:34:19;;;;;;;1.67;0.80;;;13.90;99.90;;;;;;5118226;27;20216;-67
2021/12/16 11:37:06;;;;;;;1.87;0.60;;;13.90;99.90;;;;;;5122081;27;20208;-65
2021/12/16 11:39:53;;;;;;;4.00;0.67;;;13.80;99.90;;;;;;5121859;27;20196;-70
2021/12/16 11:42:40;;;;;;;2.07;0.67;;;13.70;99.90;;;;;;5098137;27;20195;-67
2021/12/16 11:45:34;;;;;;;1.40;0.60;;;13.70;99.90;;;;;;5117731;27;20220;-69
2021/12/16 11:48:36;;;;;;;1.97;0.70;;;13.60;99.90;;;;;;5121918;27;20181;-67
2021/12/16 11:51:39;;;;;;;4.20;0.93;;;13.60;99.90;;;;;;5129418;27;20195;-67
2021/12/16 11:54:37;;;;;;;0.60;0.60;;;13.60;99.90;;;;;;5110321;28;20191;-67
2021/12/16 11:57:36;;;;;;;0.93;0.60;;;13.60;99.90;;;;;;5107565;27;20655;-66
2021/12/16 12:00:31;;;;;;;4.63;0.80;;;13.60;99.90;;;;;;5111180;28;20326;-67
2021/12/16 12:03:18;;;;;;;0.70;0.60;;;13.70;99.90;;;;;;5112804;27;20192;-65
2021/12/16 12:06:04;;;;;;;0.80;0.60;;;13.70;99.90;;;;;;5121743;27;20328;-68
2021/12/16 12:08:54;;;;;;;1.90;0.70;;;13.70;99.90;;;;;;5118735;27;20216;-67
2021/12/16 12:11:43;;;;;;;2.23;0.73;;;13.80;99.90;;;;;;5113601;27;20586;-66
2021/12/16 12:14:36;;;;;;;2.73;0.80;;;13.90;99.90;;;;;;5111492;27;20194;-65
2021/12/16 12:17:23;;;;;;;3.33;0.70;;;14.10;99.90;;;;;;5118547;27;20203;-66
2021/12/16 12:20:10;;;;;;;2.43;0.87;;;14.20;99.90;;;;;;5127990;27;20195;-66
2021/12/16 12:23:00;;;;;;;3.13;0.70;;;14.30;99.90;;;;;;5117940;27;20273;-67
2021/12/16 12:25:46;;;;;;;3.17;0.70;;;14.40;99.90;;;;;;5123118;27;20221;-68
2021/12/16 12:28:33;;;;;;;1.57;0.50;;;14.40;99.90;;;;;;5117591;27;20184;-67
2021/12/16 12:31:25;;;;;;;2.00;0.90;;;14.40;99.90;;;;;;5119736;27;20200;-66
2021/12/16 12:34:13;;;;;;;8.13;1.07;;;14.30;99.90;;;;;;5114720;27;20193;-67
2021/12/16 12:37:07;;;;;;;2.47;0.80;;;14.30;99.90;;;;;;5126264;27;20192;-66
2021/12/16 12:40:00;;;;;;;2.93;0.93;;;14.30;99.90;;;;;;5107949;27;20185;-68
2021/12/16 12:42:52;;;;;;;2.07;0.63;;;14.40;99.90;;;;;;5115068;27;20246;-68
2021/12/16 12:45:41;;;;;;;2.27;0.77;;;14.40;99.90;;;;;;5099410;27;22027;-68
2021/12/16 12:48:28;;;;;;;9.53;1.20;;;14.40;99.90;;;;;;5117659;27;20188;-66
2021/12/16 12:51:17;;;;;;;1.90;0.63;;;14.40;99.90;;;;;;5120689;27;20189;-67
2021/12/16 12:54:27;;;;;;;2.40;0.90;;;14.40;99.90;;;;;;5120755;27;20192;-67
2021/12/16 12:57:31;;;;;;;2.80;0.70;;;14.40;99.90;;;;;;5125697;27;20236;-67
2021/12/16 13:00:33;;;;;;;2.67;0.70;;;14.40;99.90;;;;;;5111214;27;20964;-67
2021/12/16 13:03:41;;;;;;;2.27;0.60;;;14.40;99.90;;;;;;5115154;27;20192;-69
2021/12/16 13:06:27;;;;;;;2.47;0.60;;;14.40;99.90;;;;;;5118484;27;20315;-64
2021/12/16 13:09:30;;;;;;;0.70;0.40;;;14.40;99.90;;;;;;5120454;27;20196;-69
2021/12/16 13:12:38;;;;;;;2.67;0.73;;;14.30;99.90;;;;;;5107431;27;20241;-67
2021/12/16 13:28:32;;;;;;;0.93;0.47;;;14.10;99.90;;;;;;5083832;27;20203;-68
2021/12/16 13:31:52;;;;;;;1.30;0.70;;;14.10;99.90;;;;;;5116976;27;20189;-67
2021/12/16 13:35:06;;;;;;;1.80;0.60;;;14.00;99.90;;;;;;5100577;27;20266;-66
2021/12/16 13:37:57;;;;;;;1.30;0.50;;;14.00;99.90;;;;;;5115870;27;20193;-67
2021/12/16 13:40:45;;;;;;;2.07;0.73;;;13.90;99.90;;;;;;5102410;27;20315;-68
2021/12/16 13:43:32;;;;;;;1.83;0.53;;;13.90;99.90;;;;;;5099074;27;20279;-68
2021/12/16 13:59:49;;;;;;;0.77;0.43;;;13.60;99.90;;;;;;5118200;27;20185;-66
2021/12/16 14:08:25;;;;;;;4.37;0.70;;;13.50;99.90;;;;;;5123754;27;20268;-67
2021/12/16 14:12:32;;;;;;;1.30;0.60;;;13.50;99.90;;;;;;5124820;27;20177;-68
2021/12/16 14:17:55;;;;;;;2.30;0.80;;;13.40;99.90;;;;;;5114465;27;20191;-66
2021/12/16 14:24:15;;;;;;;2.70;0.90;;;13.30;99.90;;;;;;5123543;27;20181;-67
2021/12/16 14:27:19;;;;;;;0.80;0.80;;;13.30;99.90;;;;;;5121963;27;20633;-67
2021/12/16 14:51:15;;;;;;;1.43;0.70;;;12.90;99.90;;;;;;5112062;27;20196;-65
2021/12/16 14:54:03;;;;;;;1.47;0.60;;;12.80;99.90;;;;;;5109748;27;20213;-67
2021/12/16 14:56:57;;;;;;;4.07;1.00;;;12.70;99.90;;;;;;5119594;27;20542;-68
2021/12/16 14:59:44;;;;;;;1.87;0.70;;;12.70;99.90;;;;;;5108399;27;20181;-67
2021/12/16 15:02:33;;;;;;;1.30;0.83;;;12.70;99.90;;;;;;5122816;27;20189;-67
2021/12/16 15:05:30;;;;;;;1.40;0.83;;;12.70;99.90;;;;;;5124689;27;20263;-67
2021/12/16 15:08:31;;;;;;;0.87;0.67;;;12.70;99.90;;;;;;5088962;28;20234;-66
2021/12/16 15:11:51;;;;;;;1.67;0.70;;;12.70;99.90;;;;;;5103462;28;20181;-67
2021/12/16 15:40:12;;;;;;;1.00;0.77;;;12.60;99.90;;;;;;5080472;28;20678;-68
2021/12/16 15:43:03;;;;;;;1.13;0.53;;;12.60;99.90;;;;;;5103000;28;20185;-67
2021/12/16 15:45:54;;;;;;;2.90;0.70;;;12.50;99.90;;;;;;5121293;27;20525;-68
2021/12/16 15:48:47;;;;;;;2.70;1.00;;;12.60;99.90;;;;;;5106996;27;20184;-67
2021/12/16 15:51:34;;;;;;;5.97;0.80;;;12.60;99.90;;;;;;5114548;27;20640;-67
2021/12/16 15:54:22;;;;;;;0.50;0.50;;;12.50;99.90;;;;;;5120304;28;20658;-66
2021/12/16 15:57:09;;;;;;;0.57;0.50;;;12.50;99.90;;;;;;5105782;28;20195;-67
2021/12/16 16:00:20;;;;;;;1.67;0.70;;;12.50;99.90;;;;;;5123455;28;20176;-66
2021/12/16 16:03:08;;;;;;;2.80;1.00;;;12.50;99.90;;;;;;5123339;27;20207;-67
2021/12/16 16:06:01;;;;;;;3.33;0.90;;;12.50;99.90;;;;;;5105939;28;20205;-67
2021/12/16 16:09:03;;;;;;;2.27;1.00;;;12.50;99.90;;;;;;5116492;27;20188;-66
2021/12/16 16:11:54;;;;;;;4.47;1.20;;;12.50;99.90;;;;;;5116918;27;20184;-67
2021/12/16 16:14:44;;;;;;;1.60;0.80;;;12.40;99.90;;;;;;5120710;27;20218;-68
2021/12/16 16:17:43;;;;;;;1.30;0.77;;;12.50;99.90;;;;;;5111202;27;20192;-66
2021/12/16 16:20:34;;;;;;;5.43;1.37;;;12.40;99.90;;;;;;5123388;27;20726;-68
2021/12/16 16:23:24;;;;;;;4.03;0.97;;;12.50;99.90;;;;;;5120395;27;20604;-68
2021/12/16 16:26:18;;;;;;;1.63;0.80;;;12.40;99.90;;;;;;5109283;27;20291;-67
2021/12/16 16:29:19;;;;;;;3.83;0.80;;;12.40;99.90;;;;;;5111676;27;20177;-68
2021/12/16 16:32:07;;;;;;;1.77;0.70;;;12.40;99.90;;;;;;5118747;27;20246;-66
2021/12/16 16:34:56;;;;;;;2.07;0.70;;;12.40;99.90;;;;;;5129431;27;20209;-68
2021/12/16 16:37:42;;;;;;;5.37;0.83;;;12.40;99.90;;;;;;5120291;27;20196;-67
2021/12/16 16:40:41;;;;;;;1.80;0.60;;;12.30;99.90;;;;;;5127281;27;20192;-68
2021/12/16 16:43:37;;;;;;;4.03;0.90;;;12.20;99.90;;;;;;5125559;27;20181;-66
2021/12/16 16:46:42;;;;;;;1.43;0.50;;;12.30;99.90;;;;;;5125686;27;20579;-67
2021/12/16 16:49:47;;;;;;;2.53;1.00;;;12.20;99.90;;;;;;5125181;27;20211;-67
2021/12/16 16:52:46;;;;;;;1.70;0.80;;;12.30;99.90;;;;;;5112585;27;20180;-67
2021/12/16 16:55:35;;;;;;;1.10;0.80;;;12.20;99.90;;;;;;5121740;27;20249;-67
2021/12/16 16:58:22;;;;;;;2.33;0.90;;;12.10;99.90;;;;;;5110043;27;20220;-66
2021/12/16 17:01:09;;;;;;;1.10;0.90;;;12.10;99.90;;;;;;5120956;27;20273;-66
2021/12/16 17:03:56;;;;;;;1.90;0.90;;;12.00;99.90;;;;;;5124080;27;20189;-68
2021/12/16 17:06:49;;;;;;;3.10;1.00;;;11.90;99.90;;;;;;5125326;27;20224;-67
2021/12/16 17:09:40;;;;;;;1.97;0.90;;;11.90;99.90;;;;;;5091877;27;20177;-67
2021/12/16 17:12:34;;;;;;;3.63;0.97;;;11.90;99.90;;;;;;5126305;27;20602;-66
2021/12/16 17:15:34;;;;;;;1.67;0.80;;;11.90;99.90;;;;;;5123750;27;20211;-68
2021/12/16 17:18:41;;;;;;;1.00;0.80;;;11.80;99.90;;;;;;5105885;27;20763;-68
2021/12/16 17:21:37;;;;;;;1.43;0.80;;;11.80;99.90;;;;;;5106074;28;20185;-66
2021/12/16 17:24:29;;;;;;;1.80;0.90;;;11.80;99.90;;;;;;5113011;27;20195;-67
2021/12/16 17:27:20;;;;;;;2.00;0.90;;;11.80;99.90;;;;;;5120166;27;20299;-67
2021/12/16 17:30:29;;;;;;;3.50;1.10;;;11.80;99.90;;;;;;5096905;28;20192;-68
2021/12/16 17:33:33;;;;;;;3.13;1.10;;;11.80;99.90;;;;;;5115507;27;20188;-67
2021/12/16 17:36:23;;;;;;;2.00;1.00;;;11.70;99.90;;;;;;5123511;27;20184;-68
2021/12/16 17:39:16;;;;;;;1.33;1.00;;;11.70;99.90;;;;;;5110631;27;20624;-66
2021/12/16 17:42:09;;;;;;;1.57;0.80;;;11.70;99.90;;;;;;5119725;27;20634;-68
2021/12/16 17:45:01;;;;;;;3.83;1.07;;;11.70;99.90;;;;;;5104189;28;20197;-67
2021/12/16 17:47:50;;;;;;;2.00;1.43;;;11.70;99.90;;;;;;5101489;28;20169;-67
2021/12/16 17:50:49;;;;;;;3.27;1.83;;;11.70;99.90;;;;;;5124515;27;20254;-66
2021/12/16 17:53:43;;;;;;;5.37;0.97;;;11.70;99.90;;;;;;5120812;27;20700;-66
2021/12/16 17:56:31;;;;;;;1.40;0.90;;;11.60;99.90;;;;;;5118535;27;20183;-67
2021/12/16 17:59:18;;;;;;;2.60;0.80;;;11.60;99.90;;;;;;5108113;27;20268;-67
2021/12/16 18:02:16;;;;;;;1.57;0.80;;;11.60;99.90;;;;;;5123537;27;20384;-67
2021/12/16 18:05:04;;;;;;;2.23;0.90;;;11.60;99.90;;;;;;5112518;27;20182;-67
2021/12/16 18:07:52;;;;;;;3.30;0.80;;;11.60;99.90;;;;;;5125220;27;20187;-67
2021/12/16 18:10:39;;;;;;;3.00;1.00;;;11.60;99.90;;;;;;5100316;27;20197;-66
2021/12/16 18:14:06;;;;;;;1.50;0.77;;;11.60;99.90;;;;;;5125510;27;20181;-66
2021/12/16 18:17:01;;;;;;;2.70;0.60;;;11.60;99.90;;;;;;5126211;27;20177;-67
2021/12/16 18:20:01;;;;;;;1.70;0.90;;;11.70;99.90;;;;;;5123981;27;20636;-67
2021/12/16 18:22:51;;;;;;;1.80;1.10;;;11.80;99.90;;;;;;5109840;27;20236;-66
2021/12/16 18:25:46;;;;;;;1.40;0.80;;;11.70;99.90;;;;;;5107164;27;20209;-67
2021/12/16 18:28:46;;;;;;;1.00;0.70;;;11.80;99.90;;;;;;5125065;27;20537;-66
2021/12/16 18:31:35;;;;;;;2.57;0.73;;;11.80;99.90;;;;;;5104905;27;20183;-68
2021/12/16 18:34:28;;;;;;;2.50;0.77;;;11.80;99.90;;;;;;5116580;27;20214;-67
2021/12/16 18:37:14;;;;;;;3.60;1.20;;;11.80;99.90;;;;;;5101769;28;20201;-67
2021/12/16 18:40:06;;;;;;;1.10;0.93;;;11.80;99.90;;;;;;5103687;28;20181;-67
2021/12/16 18:42:58;;;;;;;0.83;0.70;;;11.90;99.90;;;;;;5110645;27;20192;-67
2021/12/16 18:45:46;;;;;;;2.50;0.83;;;11.80;99.90;;;;;;5119733;27;20217;-67
2021/12/16 18:48:48;;;;;;;2.60;1.00;;;11.90;99.90;;;;;;5123760;27;20187;-66
2021/12/16 18:52:10;;;;;;;1.73;0.77;;;11.90;99.90;;;;;;5104220;28;20281;-67
2021/12/16 18:54:54;;;;;;;1.93;1.00;;;11.80;99.90;;;;;;5102626;27;20185;-67